createdAt,value
2018-07-08T00:01:00.555Z,17.95
2018-07-08T00:03:30.435Z,19.05
2018-07-08T00:06:00.266Z,18.58
2018-07-08T00:08:30.191Z,18.80
2018-07-08T00:11:00.527Z,19.28
2018-07-08T00:13:30.334Z,19.59
2018-07-08T00:16:00.085Z,19.72
2018-07-08T00:18:29.878Z,19.80
2018-07-08T00:20:59.719Z,19.77
2018-07-08T00:23:29.559Z,19.83
2018-07-08T00:25:59.330Z,19.88
2018-07-08T00:28:29.192Z,19.43
2018-07-08T00:30:58.909Z,19.22
2018-07-08T00:33:28.666Z,19.08
2018-07-08T00:35:58.417Z,19.07
2018-07-08T00:38:28.030Z,19.34
2018-07-08T00:40:57.778Z,19.69
2018-07-08T00:43:27.668Z,19.81
2018-07-08T00:45:57.473Z,19.87
2018-07-08T00:48:27.250Z,19.52
2018-07-08T00:50:57.017Z,19.59
2018-07-08T00:53:26.701Z,19.72
2018-07-08T00:55:56.452Z,19.71
2018-07-08T00:58:26.268Z,19.75
2018-07-08T01:00:56.079Z,19.77
2018-07-08T01:03:25.800Z,19.52
2018-07-08T01:05:55.970Z,19.46
2018-07-08T01:08:25.757Z,19.51
2018-07-08T01:10:55.515Z,19.61
2018-07-08T01:13:25.465Z,19.61
2018-07-08T01:15:55.244Z,19.61
2018-07-08T01:18:24.940Z,19.69
2018-07-08T01:20:54.721Z,19.64
2018-07-08T01:23:24.396Z,19.51
2018-07-08T01:26:17.089Z,19.39
2018-07-08T01:28:46.780Z,19.35
2018-07-08T01:31:16.630Z,19.41
2018-07-08T01:33:47.370Z,19.46
2018-07-08T01:36:17.109Z,18.55
2018-07-08T01:38:46.921Z,17.70
2018-07-08T01:41:16.920Z,17.70
2018-07-08T01:43:47.115Z,17.68
2018-07-08T01:46:16.871Z,17.87
2018-07-08T01:48:46.801Z,17.77
2018-07-08T01:51:16.630Z,17.65
2018-07-08T01:53:46.503Z,17.56
2018-07-08T01:56:16.391Z,17.73
2018-07-08T01:58:46.246Z,17.81
2018-07-08T02:01:16.152Z,18.18
2018-07-08T02:03:45.975Z,17.80
2018-07-08T02:06:16.065Z,17.76
2018-07-08T02:08:46.370Z,18.04
2018-07-08T02:11:16.213Z,18.22
2018-07-08T02:13:46.078Z,18.69
2018-07-08T02:16:15.916Z,18.90
2018-07-08T02:18:45.857Z,19.07
2018-07-08T02:21:15.676Z,19.13
2018-07-08T02:23:46.043Z,19.32
2018-07-08T02:26:15.905Z,18.80
2018-07-08T02:28:45.833Z,18.80
2018-07-08T02:31:15.638Z,19.19
2018-07-08T02:33:45.290Z,19.10
2018-07-08T02:36:15.063Z,19.32
2018-07-08T02:38:44.895Z,19.28
2018-07-08T02:41:14.804Z,18.72
2018-07-08T02:43:44.828Z,18.78
2018-07-08T02:46:14.955Z,18.59
2018-07-08T02:48:44.821Z,18.95
2018-07-08T02:51:14.629Z,18.81
2018-07-08T02:53:44.451Z,19.01
2018-07-08T02:56:14.185Z,19.18
2018-07-08T02:58:43.918Z,18.69
2018-07-08T03:01:13.666Z,18.12
2018-07-08T03:03:43.570Z,18.42
2018-07-08T03:06:13.340Z,18.65
2018-07-08T03:08:43.356Z,18.66
2018-07-08T03:11:13.115Z,18.40
2018-07-08T03:13:42.875Z,18.53
2018-07-08T03:16:12.683Z,18.31
2018-07-08T03:18:42.527Z,18.45
2018-07-08T03:21:12.242Z,18.55
2018-07-08T03:23:41.874Z,18.56
2018-07-08T03:26:11.642Z,18.53
2018-07-08T03:28:41.352Z,18.31
2018-07-08T03:31:11.299Z,18.67
2018-07-08T03:33:41.087Z,18.59
2018-07-08T03:36:10.893Z,18.29
2018-07-08T03:38:40.687Z,18.51
2018-07-08T03:41:10.463Z,18.53
2018-07-08T03:43:40.338Z,18.86
2018-07-08T03:46:10.150Z,19.08
2018-07-08T03:48:40.361Z,19.23
2018-07-08T03:51:10.042Z,18.80
2018-07-08T03:53:39.931Z,18.76
2018-07-08T03:56:09.693Z,18.34
2018-07-08T03:58:39.497Z,18.30
2018-07-08T04:01:09.141Z,18.56
2018-07-08T04:03:38.886Z,18.87
2018-07-08T04:06:08.757Z,19.08
2018-07-08T04:08:38.691Z,19.22
2018-07-08T04:11:08.894Z,19.32
2018-07-08T04:13:38.701Z,18.54
2018-07-08T04:16:10.079Z,18.35
2018-07-08T04:18:39.782Z,18.88
2018-07-08T04:21:09.687Z,19.27
2018-07-08T04:23:39.931Z,19.19
2018-07-08T04:26:09.626Z,19.16
2018-07-08T04:28:39.413Z,19.50
2018-07-08T04:31:09.241Z,19.13
2018-07-08T04:33:38.913Z,18.96
2018-07-08T04:36:08.606Z,19.15
2018-07-08T04:38:38.442Z,19.56
2018-07-08T04:41:08.219Z,19.58
2018-07-08T04:43:38.055Z,19.90
2018-07-08T04:46:08.034Z,19.59
2018-07-08T04:48:37.882Z,19.80
2018-07-08T04:51:07.677Z,20.10
2018-07-08T04:53:37.435Z,20.33
2018-07-08T04:57:31.469Z,20.11
2018-07-08T05:00:01.464Z,19.94
2018-07-08T05:02:31.319Z,19.27
2018-07-08T05:05:01.230Z,19.26
2018-07-08T05:07:30.995Z,19.23
2018-07-08T05:10:00.685Z,18.81
2018-07-08T05:12:30.613Z,19.23
2018-07-08T05:15:00.431Z,19.41
2018-07-08T05:17:30.145Z,19.38
2018-07-08T05:19:59.950Z,19.74
2018-07-08T05:22:29.749Z,19.81
2018-07-08T05:24:59.596Z,19.40
2018-07-08T05:27:29.502Z,19.22
2018-07-08T05:29:59.369Z,19.68
2018-07-08T05:32:29.220Z,19.58
2018-07-08T05:34:59.299Z,19.72
2018-07-08T05:37:29.003Z,18.00
2018-07-08T05:39:58.752Z,19.91
2018-07-08T05:42:28.498Z,20.04
2018-07-08T05:44:58.185Z,20.04
2018-07-08T05:47:27.878Z,20.25
2018-07-08T05:49:57.621Z,20.43
2018-07-08T05:52:27.422Z,20.47
2018-07-08T05:54:57.209Z,20.68
2018-07-08T05:57:26.950Z,21.06
2018-07-08T05:59:56.753Z,20.94
2018-07-08T06:02:26.599Z,20.74
2018-07-08T06:04:56.383Z,21.29
2018-07-08T06:07:26.142Z,21.98
2018-07-08T06:09:55.964Z,22.18
2018-07-08T06:12:25.619Z,21.96
2018-07-08T06:14:55.700Z,21.70
2018-07-08T06:17:25.434Z,21.60
2018-07-08T06:19:55.232Z,22.14
2018-07-08T06:22:25.009Z,23.33
2018-07-08T06:24:54.735Z,23.28
2018-07-08T06:27:24.493Z,23.70
2018-07-08T06:29:54.301Z,23.63
2018-07-08T06:32:24.012Z,23.55
2018-07-08T06:34:53.860Z,24.15
2018-07-08T06:37:23.659Z,24.20
2018-07-08T06:39:53.591Z,24.38
2018-07-08T06:42:23.421Z,24.55
2018-07-08T06:44:53.254Z,24.36
2018-07-08T06:47:22.982Z,23.48
2018-07-08T06:49:52.643Z,23.37
2018-07-08T06:52:22.432Z,23.61
2018-07-08T06:54:52.799Z,24.15
2018-07-08T06:57:22.663Z,24.64
2018-07-08T06:59:52.586Z,24.60
2018-07-08T07:02:22.681Z,24.13
2018-07-08T07:04:52.553Z,23.93
2018-07-08T07:07:22.385Z,25.07
2018-07-08T07:09:52.192Z,26.12
2018-07-08T07:12:21.985Z,26.66
2018-07-08T07:14:51.655Z,27.00
2018-07-08T07:17:21.799Z,26.34
2018-07-08T07:19:51.539Z,26.47
2018-07-08T07:22:21.544Z,27.08
2018-07-08T07:24:51.489Z,26.92
2018-07-08T07:27:21.458Z,26.81
2018-07-08T07:29:51.867Z,26.48
2018-07-08T07:32:22.966Z,26.55
2018-07-08T07:34:52.733Z,26.43
2018-07-08T07:37:22.566Z,26.13
2018-07-08T07:39:52.367Z,26.63
2018-07-08T07:42:23.009Z,25.90
2018-07-08T07:46:17.005Z,26.28
2018-07-08T07:48:46.766Z,25.78
2018-07-08T07:51:16.636Z,26.11
2018-07-08T07:53:46.320Z,26.45
2018-07-08T07:56:16.163Z,26.15
2018-07-08T07:58:45.987Z,25.96
2018-07-08T08:01:15.924Z,26.70
2018-07-08T08:03:45.725Z,27.86
2018-07-08T08:06:15.417Z,28.92
2018-07-08T08:08:45.115Z,27.91
2018-07-08T08:11:14.885Z,28.83
2018-07-08T08:14:07.812Z,28.72
2018-07-08T08:16:37.703Z,28.52
2018-07-08T08:19:07.691Z,27.96
2018-07-08T08:21:44.690Z,26.62
2018-07-08T08:24:14.682Z,27.15
2018-07-08T08:26:44.543Z,27.10
2018-07-08T08:29:14.564Z,26.87
2018-07-08T08:31:45.616Z,26.89
2018-07-08T08:35:20.242Z,26.84
2018-07-08T08:37:58.222Z,27.21
2018-07-08T08:40:29.205Z,26.89
2018-07-08T08:42:59.122Z,27.01
2018-07-08T08:45:30.107Z,26.16
2018-07-08T08:47:59.797Z,26.35
2018-07-08T08:50:30.222Z,26.82
2018-07-08T08:52:59.942Z,27.06
2018-07-08T08:55:29.684Z,25.30
2018-07-08T08:57:59.419Z,26.36
2018-07-08T09:00:29.325Z,26.17
2018-07-08T09:02:59.024Z,26.16
2018-07-08T09:05:28.850Z,26.06
2018-07-08T09:07:58.660Z,26.09
2018-07-08T09:10:28.610Z,26.64
2018-07-08T09:12:58.366Z,26.93
2018-07-08T09:15:28.082Z,26.77
2018-07-08T09:17:57.794Z,26.86
2018-07-08T09:20:27.773Z,26.89
2018-07-08T09:22:57.600Z,27.20
2018-07-08T09:25:27.281Z,27.33
2018-07-08T09:27:57.111Z,27.28
2018-07-08T09:30:26.813Z,27.67
2018-07-08T09:32:56.523Z,27.66
2018-07-08T09:35:26.212Z,27.90
2018-07-08T09:37:55.953Z,28.01
2018-07-08T09:40:25.941Z,27.84
2018-07-08T09:42:55.743Z,28.23
2018-07-08T09:45:25.513Z,28.15
2018-07-08T09:47:55.330Z,28.24
2018-07-08T09:50:25.102Z,27.43
2018-07-08T09:52:54.840Z,27.26
2018-07-08T09:55:24.529Z,28.04
2018-07-08T09:57:54.414Z,27.64
2018-07-08T10:00:24.203Z,27.97
2018-07-08T10:02:53.940Z,27.73
2018-07-08T10:05:23.471Z,26.89
2018-07-08T10:07:53.284Z,27.75
2018-07-08T10:10:22.943Z,27.97
2018-07-08T10:12:52.684Z,28.39
2018-07-08T10:15:22.438Z,27.99
2018-07-08T10:17:52.302Z,27.98
2018-07-08T10:20:22.151Z,27.69
2018-07-08T10:22:52.234Z,27.80
2018-07-08T10:25:22.809Z,28.33
2018-07-08T10:28:24.540Z,28.57
2018-07-08T10:30:54.865Z,29.74
2018-07-08T10:33:24.547Z,29.81
2018-07-08T10:36:01.652Z,30.21
2018-07-08T10:38:32.364Z,30.47
2018-07-08T10:41:02.014Z,30.01
2018-07-08T10:43:31.789Z,29.94
2018-07-08T10:46:01.541Z,29.71
2018-07-08T10:48:31.556Z,29.72
2018-07-08T10:51:01.409Z,30.75
2018-07-08T10:53:31.196Z,31.22
2018-07-08T10:56:01.162Z,31.74
2018-07-08T10:58:32.358Z,31.71
2018-07-08T11:01:02.514Z,31.20
2018-07-08T11:03:32.414Z,30.20
2018-07-08T11:06:02.209Z,29.64
2018-07-08T11:08:32.058Z,29.26
2018-07-08T11:11:01.964Z,27.98
2018-07-08T11:13:31.685Z,27.52
2018-07-08T11:16:01.430Z,27.35
2018-07-08T11:18:31.194Z,26.86
2018-07-08T11:21:01.292Z,27.40
2018-07-08T11:23:31.437Z,27.82
2018-07-08T11:26:01.322Z,27.82
2018-07-08T11:28:31.208Z,26.88
2018-07-08T11:31:01.053Z,26.37
2018-07-08T11:33:30.962Z,25.41
2018-07-08T11:36:00.833Z,24.96
2018-07-08T11:38:30.681Z,24.21
2018-07-08T11:41:00.635Z,23.04
2018-07-08T11:43:30.467Z,22.48
2018-07-08T11:46:00.321Z,21.77
2018-07-08T11:48:30.214Z,21.41
2018-07-08T11:51:00.084Z,21.75
2018-07-08T11:53:29.942Z,21.67
2018-07-08T11:55:59.797Z,21.39
2018-07-08T11:58:29.593Z,21.20
2018-07-08T12:00:59.505Z,21.61
2018-07-08T12:03:29.349Z,21.95
2018-07-08T12:05:59.206Z,22.19
2018-07-08T12:08:29.006Z,22.91
2018-07-08T12:10:58.789Z,22.93
2018-07-08T12:13:28.488Z,22.63
2018-07-08T12:15:58.131Z,23.14
2018-07-08T12:18:27.851Z,22.99
2018-07-08T12:20:57.624Z,22.93
2018-07-08T12:23:27.341Z,23.75
2018-07-08T12:25:57.430Z,24.26
2018-07-08T12:28:27.318Z,25.06
2018-07-08T12:30:57.078Z,25.24
2018-07-08T12:33:26.798Z,24.92
2018-07-08T12:36:01.330Z,25.09
2018-07-08T12:38:31.654Z,25.14
2018-07-08T12:41:01.391Z,25.85
2018-07-08T12:43:31.390Z,25.64
2018-07-08T12:46:01.223Z,25.46
2018-07-08T12:48:30.997Z,25.73
2018-07-08T12:51:00.830Z,27.26
2018-07-08T12:53:30.961Z,27.98
2018-07-08T12:56:00.647Z,27.38
2018-07-08T12:58:30.478Z,26.93
2018-07-08T13:01:00.394Z,26.99
2018-07-08T13:03:30.164Z,26.16
2018-07-08T13:05:59.940Z,25.66
2018-07-08T13:08:29.695Z,25.20
2018-07-08T13:10:59.538Z,25.43
2018-07-08T13:13:29.221Z,25.96
2018-07-08T13:15:59.051Z,26.07
2018-07-08T13:18:29.006Z,26.15
2018-07-08T13:20:58.796Z,26.25
2018-07-08T13:23:28.630Z,26.17
2018-07-08T13:25:58.391Z,25.81
2018-07-08T13:28:28.439Z,25.52
2018-07-08T13:30:58.365Z,26.13
2018-07-08T13:33:28.220Z,25.99
2018-07-08T13:35:58.205Z,26.20
2018-07-08T13:38:28.240Z,26.55
2018-07-08T13:40:57.976Z,27.26
2018-07-08T13:43:27.735Z,27.35
2018-07-08T13:45:57.554Z,28.20
2018-07-08T13:48:27.326Z,29.11
2018-07-08T13:50:57.096Z,29.09
2018-07-08T13:53:26.783Z,29.51
2018-07-08T13:55:56.770Z,30.04
2018-07-08T13:58:26.709Z,28.72
2018-07-08T14:00:56.592Z,28.98
2018-07-08T14:03:26.397Z,29.78
2018-07-08T14:05:56.336Z,30.15
2018-07-08T14:08:26.255Z,29.94
2018-07-08T14:10:56.127Z,29.00
2018-07-08T14:13:26.101Z,27.79
2018-07-08T14:15:55.983Z,27.58
2018-07-08T14:18:26.613Z,27.12
2018-07-08T14:20:56.446Z,26.93
2018-07-08T14:23:26.141Z,26.55
2018-07-08T14:25:56.061Z,25.85
2018-07-08T14:28:25.918Z,26.08
2018-07-08T14:30:56.091Z,25.75
2018-07-08T14:33:26.044Z,26.18
2018-07-08T14:35:56.008Z,26.53
2018-07-08T14:38:25.895Z,25.35
2018-07-08T14:40:55.586Z,25.23
2018-07-08T14:43:25.301Z,24.64
2018-07-08T14:45:55.204Z,24.46
2018-07-08T14:48:25.021Z,24.52
2018-07-08T14:50:54.842Z,24.67
2018-07-08T14:53:24.691Z,24.28
2018-07-08T14:55:54.448Z,24.11
2018-07-08T14:58:24.319Z,24.10
2018-07-08T15:00:54.206Z,23.95
2018-07-08T15:03:23.953Z,23.86
2018-07-08T15:05:53.973Z,23.76
2018-07-08T15:08:23.726Z,23.66
2018-07-08T15:10:53.457Z,23.40
2018-07-08T15:13:23.195Z,23.14
2018-07-08T15:15:53.073Z,23.13
2018-07-08T15:18:22.918Z,23.60
2018-07-08T15:20:52.623Z,23.78
2018-07-08T15:23:22.425Z,24.36
2018-07-08T15:25:52.229Z,24.71
2018-07-08T15:28:22.116Z,24.49
2018-07-08T15:30:51.826Z,24.20
2018-07-08T15:33:21.695Z,23.64
2018-07-08T15:35:51.485Z,23.85
2018-07-08T15:38:21.089Z,23.78
2018-07-08T15:40:50.975Z,23.35
2018-07-08T15:43:20.775Z,22.99
2018-07-08T15:45:50.541Z,22.87
2018-07-08T15:48:20.327Z,22.58
2018-07-08T15:50:50.213Z,23.23
2018-07-08T15:53:20.104Z,22.92
2018-07-08T15:55:50.142Z,22.91
2018-07-08T15:58:19.915Z,23.33
2018-07-08T16:00:49.685Z,23.26
2018-07-08T16:03:19.268Z,22.92
2018-07-08T16:05:49.111Z,23.11
2018-07-08T16:08:18.773Z,23.55
2018-07-08T16:10:48.541Z,23.89
2018-07-08T16:13:18.295Z,23.95
2018-07-08T16:15:48.205Z,23.85
2018-07-08T16:18:17.960Z,23.96
2018-07-08T16:20:47.799Z,23.85
2018-07-08T16:23:17.725Z,24.19
2018-07-08T16:25:47.486Z,24.24
2018-07-08T16:28:17.359Z,23.90
2018-07-08T16:30:47.242Z,23.91
2018-07-08T16:33:17.006Z,23.41
2018-07-08T16:35:52.241Z,23.66
2018-07-08T16:38:22.386Z,23.16
2018-07-08T16:40:53.310Z,23.32
2018-07-08T16:43:23.271Z,23.62
2018-07-08T16:45:53.172Z,23.37
2018-07-08T16:48:24.298Z,23.42
2018-07-08T16:50:54.068Z,23.74
2018-07-08T16:53:24.030Z,24.06
2018-07-08T16:55:53.953Z,23.28
2018-07-08T16:58:24.495Z,23.46
2018-07-08T17:00:54.288Z,22.77
2018-07-08T17:03:24.142Z,22.62
2018-07-08T17:05:54.477Z,22.38
2018-07-08T17:08:24.719Z,22.34
2018-07-08T17:10:54.469Z,22.37
2018-07-08T17:13:24.277Z,22.45
2018-07-08T17:15:54.173Z,22.68
2018-07-08T17:18:25.030Z,22.36
2018-07-08T17:20:54.979Z,22.20
2018-07-08T17:23:24.943Z,22.24
2018-07-08T17:25:54.730Z,22.70
2018-07-08T17:28:24.657Z,22.89
2018-07-08T17:30:54.497Z,22.49
2018-07-08T17:33:24.347Z,22.91
2018-07-08T17:35:54.724Z,22.91
2018-07-08T17:38:24.632Z,23.22
2018-07-08T17:40:54.763Z,23.43
2018-07-08T17:43:24.757Z,23.52
2018-07-08T17:45:54.557Z,23.56
2018-07-08T17:48:24.428Z,23.51
2018-07-08T17:50:54.346Z,23.59
2018-07-08T17:53:24.388Z,22.91
2018-07-08T17:55:54.334Z,22.90
2018-07-08T17:58:24.225Z,22.35
2018-07-08T18:00:54.005Z,22.20
2018-07-08T18:03:23.812Z,22.17
2018-07-08T18:05:53.667Z,22.54
2018-07-08T18:08:23.662Z,22.89
2018-07-08T18:10:53.620Z,22.53
2018-07-08T18:13:23.496Z,22.43
2018-07-08T18:15:53.326Z,22.67
2018-07-08T18:18:23.109Z,22.94
2018-07-08T18:20:52.932Z,23.09
2018-07-08T18:23:22.710Z,22.97
2018-07-08T18:25:52.704Z,23.05
2018-07-08T18:28:22.442Z,22.46
2018-07-08T18:30:52.189Z,21.96
2018-07-08T18:33:21.949Z,21.80
2018-07-08T18:35:51.987Z,21.72
2018-07-08T18:38:21.987Z,21.69
2018-07-08T18:40:51.834Z,21.52
2018-07-08T18:43:23.730Z,21.55
2018-07-08T18:45:54.356Z,21.85
2018-07-08T18:48:25.576Z,22.24
2018-07-08T18:50:55.362Z,22.49
2018-07-08T18:53:25.264Z,22.28
2018-07-08T18:55:55.297Z,22.24
2018-07-08T18:58:25.322Z,22.07
2018-07-08T19:00:55.307Z,21.77
2018-07-08T19:03:25.117Z,21.93
2018-07-08T19:05:54.978Z,22.04
2018-07-08T19:08:24.843Z,22.09
2018-07-08T19:10:54.828Z,21.98
2018-07-08T19:13:24.827Z,22.31
2018-07-08T19:15:55.356Z,21.87
2018-07-08T19:18:26.768Z,21.87
2018-07-08T19:20:56.451Z,22.29
2018-07-08T19:23:26.510Z,22.48
2018-07-08T19:25:56.973Z,22.29
2018-07-08T19:28:28.519Z,22.35
2018-07-08T19:30:58.487Z,22.02
2018-07-08T19:33:28.711Z,22.06
2018-07-08T19:35:58.558Z,22.29
2018-07-08T19:38:29.414Z,22.36
2018-07-08T19:40:59.298Z,22.41
2018-07-08T19:43:29.309Z,22.36
2018-07-08T19:45:59.122Z,22.00
2018-07-08T19:48:33.970Z,21.98
2018-07-08T19:51:11.484Z,22.09
2018-07-08T19:53:42.001Z,22.06
2018-07-08T19:56:12.681Z,21.66
2018-07-08T19:58:42.483Z,21.25
2018-07-08T20:01:12.289Z,21.32
2018-07-08T20:03:43.066Z,21.57
2018-07-08T20:06:12.781Z,21.64
2018-07-08T20:08:42.731Z,21.81
2018-07-08T20:11:12.823Z,21.70
2018-07-08T20:13:42.892Z,21.15
2018-07-08T20:16:12.772Z,21.13
2018-07-08T20:18:42.762Z,20.62
2018-07-08T20:21:14.428Z,20.58
2018-07-08T20:23:44.094Z,20.42
2018-07-08T20:26:14.131Z,20.18
2018-07-08T20:28:45.188Z,20.09
2018-07-08T20:31:15.114Z,19.96
2018-07-08T20:33:45.864Z,19.83
2018-07-08T20:36:15.674Z,20.38
2018-07-08T20:38:45.695Z,20.80
2018-07-08T20:41:15.553Z,20.92
2018-07-08T20:43:45.223Z,20.22
2018-07-08T20:46:15.138Z,19.94
2018-07-08T20:48:47.219Z,19.87
2018-07-08T20:51:17.049Z,20.11
2018-07-08T20:53:46.797Z,19.87
2018-07-08T20:56:16.473Z,20.44
2018-07-08T20:58:46.551Z,20.69
2018-07-08T21:01:16.616Z,21.00
2018-07-08T21:03:46.402Z,21.11
2018-07-08T21:06:16.233Z,21.09
2018-07-08T21:08:46.418Z,20.54
2018-07-08T21:11:16.301Z,20.54
2018-07-08T21:13:46.205Z,20.87
2018-07-08T21:16:16.088Z,20.83
2018-07-08T21:18:45.895Z,21.05
2018-07-08T21:21:15.726Z,20.47
2018-07-08T21:23:45.564Z,20.38
2018-07-08T21:26:15.353Z,20.14
2018-07-08T21:28:45.157Z,20.08
2018-07-08T21:31:15.113Z,20.34
2018-07-08T21:33:45.575Z,20.50
2018-07-08T21:36:15.373Z,20.03
2018-07-08T21:38:45.263Z,19.96
2018-07-08T21:41:15.217Z,19.54
2018-07-08T21:43:45.061Z,19.29
2018-07-08T21:46:14.912Z,19.40
2018-07-08T21:48:44.803Z,20.03
2018-07-08T21:51:15.126Z,20.47
2018-07-08T21:53:44.991Z,20.62
2018-07-08T21:56:15.431Z,20.79
2018-07-08T21:58:45.628Z,20.42
2018-07-08T22:01:20.249Z,20.69
2018-07-08T22:03:50.726Z,20.69
2018-07-08T22:06:20.948Z,20.77
2018-07-08T22:08:50.750Z,20.37
2018-07-08T22:11:20.605Z,20.67
2018-07-08T22:13:50.795Z,20.29
2018-07-08T22:16:20.722Z,20.22
2018-07-08T22:18:50.528Z,20.30
2018-07-08T22:21:20.380Z,20.47
2018-07-08T22:23:50.226Z,20.10
2018-07-08T22:26:20.017Z,19.88
2018-07-08T22:28:49.870Z,20.02
2018-07-08T22:31:19.669Z,19.95
2018-07-08T22:33:49.638Z,20.30
2018-07-08T22:36:19.560Z,20.45
2018-07-08T22:38:49.499Z,20.67
2018-07-08T22:41:19.526Z,20.67
2018-07-08T22:43:49.482Z,20.67
2018-07-08T22:46:21.099Z,20.73
2018-07-08T22:48:52.107Z,20.68
2018-07-08T22:51:22.775Z,20.39
2018-07-08T22:53:52.609Z,20.24
2018-07-08T22:56:23.612Z,20.45
2018-07-08T22:58:53.426Z,20.59
2018-07-08T23:01:33.808Z,20.64
2018-07-08T23:04:03.973Z,20.71
2018-07-08T23:06:34.077Z,20.59
2018-07-08T23:09:05.195Z,20.57
2018-07-08T23:11:36.441Z,20.56
2018-07-08T23:14:06.181Z,20.55
2018-07-08T23:16:35.970Z,20.51
2018-07-08T23:19:07.229Z,20.52
2018-07-08T23:21:37.314Z,20.55
2018-07-08T23:24:06.993Z,20.49
2018-07-08T23:26:37.707Z,20.19
2018-07-08T23:29:07.741Z,20.36
2018-07-08T23:31:37.602Z,20.42
2018-07-08T23:34:07.479Z,20.20
2018-07-08T23:36:37.416Z,20.33
2018-07-08T23:39:07.571Z,20.38
2018-07-08T23:41:38.071Z,20.34
2018-07-08T23:44:07.869Z,20.40
2018-07-08T23:46:37.823Z,20.39
2018-07-08T23:49:08.124Z,20.38
2018-07-08T23:51:38.037Z,20.41
2018-07-08T23:54:07.903Z,20.45
2018-07-08T23:56:38.173Z,19.32
2018-07-08T23:59:08.567Z,19.41
